Skip to main content

NOAA/GLERL Met Station at Muskegon, MI

Previous 3 Hours (2 minute increments)
See also Previous 5 Days (top of hour)
Jump down to Data
Switch to [English][Metric]
Zoom: Click and drag, Pan: shift-click and drag, Unzoom: double-click, Unzoom All






See also 1-day windrose plot


NOAA/GLERL Met Station at Muskegon, MI

Previous 3 Hours (2 minute increments)
See also Previous 5 Days (top of hour only)
Jump up to Graphs
Switch to [English][Metric]
                  Wind  Wind  Wind   Air   Dew   Rel     Sta   PAR
                   Spd   Gst   Dir  Temp    Pt   Hum    Pres uE/m2/
YYYY-MM-DD   EST   kts   kts   deg     F     F     %   in Hg   sec
2020-01-21 11:20  13.0  14.2   274  28.4  21.1  73.7   29.93   761
2020-01-21 11:18  14.2  15.6   283  28.4  21.1  73.7   29.93   535
2020-01-21 11:16  13.6  15.4   281  28.6  21.1  73.2   29.93   591
2020-01-21 11:14  12.8  14.4   275  28.4  21.2  74.0   29.93  1136
2020-01-21 11:12  12.1  14.0   275  28.6  20.9  72.8   29.93   667
2020-01-21 11:10  14.0  15.0   275  28.6  20.8  72.3   29.93  1727
2020-01-21 11:08  15.6  17.9   275  28.6  21.1  73.2   29.93   968
2020-01-21 11:06  13.0  14.8   275  28.6  21.2  73.6   29.93  1627
2020-01-21 11:04  13.0  14.2   272  28.4  21.2  74.0   29.93   875
2020-01-21 11:02  13.2  15.4   281  28.4  21.0  73.6   29.93   727
2020-01-21 11:00  14.0  16.3   282  28.4  21.2  74.0   29.93   551
2020-01-21 10:58  15.0  15.7   268  28.4  21.2  74.2   29.93   773
2020-01-21 10:56  13.2  14.0   277  28.4  21.3  74.5   29.92   629
2020-01-21 10:54  13.2  15.4   270  28.2  21.2  74.6   29.92   573
2020-01-21 10:52  12.6  14.2   270  28.2  20.7  73.0   29.92   503
2020-01-21 10:50  11.9  13.4   281  28.2  20.9  73.6   29.92   485
2020-01-21 10:48  12.8  14.0   278  28.2  21.3  75.1   29.92   422
2020-01-21 10:46  13.0  14.4   275  28.0  20.9  74.3   29.91   470
2020-01-21 10:44  12.2  13.8   275  28.0  20.8  73.9   29.91   452
2020-01-21 10:42  14.6  16.1   273  28.2  21.1  74.5   29.91   444
2020-01-21 10:40  13.8  15.6   274  28.2  21.2  74.8   29.91   412
2020-01-21 10:38  12.8  14.4   270  28.2  21.3  75.1   29.91   399
2020-01-21 10:36  13.2  15.0   274  28.2  21.0  74.1   29.91   581
2020-01-21 10:34  12.8  14.2   283  28.2  20.9  73.6   29.92   680
2020-01-21 10:32  13.6  14.6   284  28.2  21.0  74.1   29.92   502
2020-01-21 10:30  13.8  15.0   279  28.2  21.1  74.4   29.91   508
2020-01-21 10:28  12.1  14.4   278  28.2  21.1  74.3   29.92   480
2020-01-21 10:26  13.8  15.0   283  28.0  20.9  74.2   29.91   595
2020-01-21 10:24  13.4  15.9   277  28.0  20.9  74.4   29.91   350
2020-01-21 10:22  14.2  16.1   283  28.2  21.3  75.1   29.91   406
2020-01-21 10:20  14.0  15.4   271  28.2  21.2  74.8   29.91   482
2020-01-21 10:18  13.2  15.0   272  28.2  21.2  74.8   29.91   516
2020-01-21 10:16  12.8  15.6   270  28.0  21.2  75.1   29.92   451
2020-01-21 10:14  12.8  15.6   271  28.0  21.1  75.0   29.92   405
2020-01-21 10:12  13.8  15.9   280  28.0  21.0  74.6   29.92   398
2020-01-21 10:10  13.4  15.4   282  28.0  20.8  73.9   29.92   364
2020-01-21 10:08  13.4  15.0   286  28.2  21.5  75.7   29.92   396
2020-01-21 10:06  12.8  14.6   284  28.0  21.0  74.6   29.92   391
2020-01-21 10:04  14.8  16.5   287  28.0  21.3  75.6   29.92   329
2020-01-21 10:02  12.4  14.2   282  27.9  20.9  75.0   29.91   299
2020-01-21 10:00  13.2  15.2   275  27.9  20.9  74.8   29.92   291
2020-01-21 09:58  13.6  14.6   280  27.7  20.5  74.1   29.92   288
2020-01-21 09:56  13.4  14.8   290  27.9  20.8  74.5   29.92   267
2020-01-21 09:54  12.8  14.4   282  27.9  21.0  75.3   29.91   266
2020-01-21 09:52  12.1  14.4   281  27.9  21.1  75.6   29.92   244
2020-01-21 09:50  13.6  15.2   277  27.9  20.9  74.9   29.92   242
2020-01-21 09:48  14.2  16.5   282  27.9  21.0  75.1   29.92   229
2020-01-21 09:46  12.4  15.7   278  27.7  20.7  74.7   29.92   205
2020-01-21 09:44  10.9  11.9   283  27.7  20.6  74.5   29.92   205
2020-01-21 09:42  13.2  14.4   285  27.7  20.7  74.9   29.92   208
2020-01-21 09:40  12.6  14.4   281  27.7  20.7  74.7   29.92   206
2020-01-21 09:38  14.0  16.5   284  27.7  20.9  75.5   29.92   196
2020-01-21 09:36  13.2  16.5   285  27.7  20.5  74.0   29.92   176
2020-01-21 09:34  11.7  13.0   286  27.7  20.5  74.1   29.92   191
2020-01-21 09:32  13.6  15.6   282  27.7  20.6  74.5   29.92   183
2020-01-21 09:30  12.4  13.8   282  27.5  20.4  74.4   29.92   177
2020-01-21 09:28  13.4  15.4   283  27.5  20.5  74.7   29.92   167
2020-01-21 09:26  12.2  14.6   288  27.5  20.7  75.2   29.92   156
2020-01-21 09:24  11.3  13.2   279  27.7  20.9  75.3   29.92   154
2020-01-21 09:22  13.6  15.7   277  27.7  21.1  76.0   29.92   165
2020-01-21 09:20  10.5  11.9   283  27.5  20.7  75.3   29.92   170
2020-01-21 09:18  11.5  12.8   281  27.5  20.3  74.1   29.92   154
2020-01-21 09:16  13.6  16.1   291  27.5  20.4  74.5   29.92   135
2020-01-21 09:14  13.0  15.2   289  27.5  20.4  74.4   29.92   133
2020-01-21 09:12  12.1  13.0   283  27.5  20.7  75.3   29.92   126
2020-01-21 09:10  12.2  15.2   295  27.5  20.8  75.7   29.92   106
2020-01-21 09:08  13.0  15.4   291  27.5  20.9  76.0   29.92    90
2020-01-21 09:06  11.5  12.6   283  27.5  21.0  76.3   29.93    90
2020-01-21 09:04  12.8  14.4   294  27.5  20.7  75.2   29.93    87
2020-01-21 09:02  13.4  15.4   294  27.3  20.5  75.2   29.93    77
2020-01-21 09:00  11.7  13.6   289  27.3  20.1  74.1   29.93    72
2020-01-21 08:58  12.8  14.6   287  27.3  20.2  74.4   29.93    71
2020-01-21 08:56  14.8  16.3   288  27.3  20.3  74.7   29.93    65
2020-01-21 08:54  12.8  14.8   292  27.3  20.4  74.8   29.93    64
2020-01-21 08:52  13.2  14.2   285  27.1  20.3  75.2   29.92    62
2020-01-21 08:50  12.8  15.0   299  27.1  20.1  74.4   29.92    58
2020-01-21 08:48  14.2  16.1   304  27.1  20.1  74.4   29.92    52
2020-01-21 08:46  13.6  15.7   293  27.3  20.5  75.3   29.92    54
2020-01-21 08:44  12.1  13.6   292  27.0  19.6  73.4   29.92    58
2020-01-21 08:42  11.9  13.4   291  27.0  19.7  73.7   29.92    53
2020-01-21 08:40  13.0  14.4   291  27.0  19.8  74.1   29.92    47
2020-01-21 08:38  11.1  15.0   297  27.0  19.8  74.1   29.92    45
2020-01-21 08:36  11.7  12.8   304  27.0  19.7  73.7   29.92    39
2020-01-21 08:34  13.0  14.2   306  27.1  20.3  75.2   29.92    36
2020-01-21 08:32  11.9  13.8   303  27.1  20.4  75.5   29.92    34
2020-01-21 08:30  11.9  13.6   288  27.1  20.3  75.2   29.92    31
2020-01-21 08:28  12.2  14.0   291  27.1  20.4  75.5   29.92    28
2020-01-21 08:26  11.1  13.0   303  27.0  20.1  75.0   29.92    25
2020-01-21 08:24  11.1  12.6   299  27.1  20.2  74.8   29.92    23
2020-01-21 08:22  12.2  13.8   296  27.1  20.6  76.2   29.92    21
2020-01-21 08:20  10.9  12.6   310  27.1  20.4  75.4   29.92    19